Honey Creek, Missouri
Current Conditions -  °F | °C
As of 1:53 PM on Saturday 25 Oct 2014 (Local Time) from KJEF Reporting Station
Clear Clear  
Wind Chill: 78°   Ceiling: Unl
Heat Index: 80°   Visibility: 9mi
Dew Point: 62°   Wind: 0mph
Humidity: 58%   Direction: NA
Pressure: 30.03"   Gusts: NA
Location:  38.5003°N, 92.1516°W
Report Text: KJEF 251853Z 00000KT 9SM CLR 26/17 A3003 RMK AO2 SLP156 T02560167
Loading
Personal Weather Stations






























Interactive Weather Map
Tropical Storm Tracking
New forecast layout! Learn more

10-Day Weather Forecast

Advertisements
Track Severe Weather on mobile